sensor_id;sensor_type;location;lat;lon;timestamp;P1;durP1;ratioP1;P2;durP2;ratioP2
69856;SDS011;57147;53.582;10.112;2023-03-12T00:02:09;6.68;;;4.80;;
69856;SDS011;57147;53.582;10.112;2023-03-12T00:07:13;9.02;;;4.93;;
69856;SDS011;57147;53.582;10.112;2023-03-12T00:12:13;9.13;;;6.28;;
69856;SDS011;57147;53.582;10.112;2023-03-12T00:17:27;8.88;;;5.38;;
69856;SDS011;57147;53.582;10.112;2023-03-12T00:22:31;8.95;;;5.57;;
69856;SDS011;57147;53.582;10.112;2023-03-12T00:27:32;8.73;;;5.07;;
69856;SDS011;57147;53.582;10.112;2023-03-12T00:32:35;8.00;;;5.72;;
69856;SDS011;57147;53.582;10.112;2023-03-12T00:37:39;6.90;;;5.32;;
69856;SDS011;57147;53.582;10.112;2023-03-12T00:42:42;5.57;;;4.00;;
69856;SDS011;57147;53.582;10.112;2023-03-12T00:47:44;7.10;;;5.18;;
69856;SDS011;57147;53.582;10.112;2023-03-12T00:52:47;7.60;;;5.82;;
69856;SDS011;57147;53.582;10.112;2023-03-12T00:57:48;6.50;;;4.75;;
69856;SDS011;57147;53.582;10.112;2023-03-12T01:02:48;7.65;;;5.13;;
69856;SDS011;57147;53.582;10.112;2023-03-12T01:07:52;8.82;;;5.45;;
69856;SDS011;57147;53.582;10.112;2023-03-12T01:12:52;7.15;;;4.80;;
69856;SDS011;57147;53.582;10.112;2023-03-12T01:17:53;8.70;;;5.60;;
69856;SDS011;57147;53.582;10.112;2023-03-12T01:22:56;10.18;;;7.10;;
69856;SDS011;57147;53.582;10.112;2023-03-12T01:27:57;11.63;;;8.38;;
69856;SDS011;57147;53.582;10.112;2023-03-12T01:32:57;10.40;;;6.57;;
69856;SDS011;57147;53.582;10.112;2023-03-12T01:38:01;9.70;;;5.65;;
69856;SDS011;57147;53.582;10.112;2023-03-12T01:43:18;13.52;;;9.95;;
69856;SDS011;57147;53.582;10.112;2023-03-12T01:48:26;8.88;;;6.78;;
69856;SDS011;57147;53.582;10.112;2023-03-12T01:53:32;16.40;;;7.85;;
69856;SDS011;57147;53.582;10.112;2023-03-12T01:58:33;13.75;;;7.32;;
69856;SDS011;57147;53.582;10.112;2023-03-12T02:03:37;11.25;;;6.93;;
69856;SDS011;57147;53.582;10.112;2023-03-12T02:08:42;8.85;;;6.85;;
69856;SDS011;57147;53.582;10.112;2023-03-12T02:13:44;12.45;;;7.50;;
69856;SDS011;57147;53.582;10.112;2023-03-12T02:18:45;8.85;;;5.88;;
69856;SDS011;57147;53.582;10.112;2023-03-12T02:23:51;13.00;;;9.13;;
69856;SDS011;57147;53.582;10.112;2023-03-12T02:29:00;12.73;;;7.53;;
69856;SDS011;57147;53.582;10.112;2023-03-12T02:34:00;9.40;;;6.05;;
69856;SDS011;57147;53.582;10.112;2023-03-12T02:39:01;9.95;;;7.22;;
69856;SDS011;57147;53.582;10.112;2023-03-12T02:44:06;10.25;;;6.13;;
69856;SDS011;57147;53.582;10.112;2023-03-12T02:49:11;11.18;;;6.43;;
69856;SDS011;57147;53.582;10.112;2023-03-12T02:54:12;10.88;;;6.72;;
69856;SDS011;57147;53.582;10.112;2023-03-12T02:59:17;11.25;;;7.30;;
69856;SDS011;57147;53.582;10.112;2023-03-12T03:04:18;9.68;;;6.78;;
69856;SDS011;57147;53.582;10.112;2023-03-12T03:09:19;13.57;;;7.82;;
69856;SDS011;57147;53.582;10.112;2023-03-12T03:14:22;16.50;;;8.85;;
69856;SDS011;57147;53.582;10.112;2023-03-12T03:19:23;15.18;;;9.43;;
69856;SDS011;57147;53.582;10.112;2023-03-12T03:24:23;13.27;;;7.93;;
69856;SDS011;57147;53.582;10.112;2023-03-12T03:29:27;14.57;;;9.60;;
69856;SDS011;57147;53.582;10.112;2023-03-12T03:34:28;13.80;;;7.57;;
69856;SDS011;57147;53.582;10.112;2023-03-12T03:39:28;11.85;;;7.40;;
69856;SDS011;57147;53.582;10.112;2023-03-12T03:44:31;12.13;;;8.10;;
69856;SDS011;57147;53.582;10.112;2023-03-12T03:49:32;11.82;;;9.95;;
69856;SDS011;57147;53.582;10.112;2023-03-12T03:54:33;10.52;;;7.60;;
69856;SDS011;57147;53.582;10.112;2023-03-12T03:59:36;11.93;;;7.07;;
69856;SDS011;57147;53.582;10.112;2023-03-12T04:04:37;12.77;;;7.50;;
69856;SDS011;57147;53.582;10.112;2023-03-12T04:09:37;12.43;;;7.85;;
69856;SDS011;57147;53.582;10.112;2023-03-12T04:14:41;9.57;;;7.35;;
69856;SDS011;57147;53.582;10.112;2023-03-12T04:19:42;11.23;;;6.30;;
69856;SDS011;57147;53.582;10.112;2023-03-12T04:24:42;11.38;;;6.85;;
69856;SDS011;57147;53.582;10.112;2023-03-12T04:29:46;13.55;;;8.85;;
69856;SDS011;57147;53.582;10.112;2023-03-12T04:34:46;12.25;;;8.20;;
69856;SDS011;57147;53.582;10.112;2023-03-12T04:39:47;13.48;;;8.52;;
69856;SDS011;57147;53.582;10.112;2023-03-12T04:44:51;12.18;;;8.07;;
69856;SDS011;57147;53.582;10.112;2023-03-12T04:49:52;14.13;;;8.20;;
69856;SDS011;57147;53.582;10.112;2023-03-12T04:54:53;12.73;;;7.63;;
69856;SDS011;57147;53.582;10.112;2023-03-12T04:59:57;11.40;;;7.63;;
69856;SDS011;57147;53.582;10.112;2023-03-12T05:04:58;10.93;;;6.80;;
69856;SDS011;57147;53.582;10.112;2023-03-12T05:09:59;11.75;;;7.32;;
69856;SDS011;57147;53.582;10.112;2023-03-12T05:15:02;11.30;;;6.72;;
69856;SDS011;57147;53.582;10.112;2023-03-12T05:20:04;12.85;;;7.22;;
69856;SDS011;57147;53.582;10.112;2023-03-12T05:25:05;13.50;;;6.78;;
69856;SDS011;57147;53.582;10.112;2023-03-12T05:30:09;10.60;;;6.65;;
69856;SDS011;57147;53.582;10.112;2023-03-12T05:35:10;9.65;;;6.68;;
69856;SDS011;57147;53.582;10.112;2023-03-12T05:40:12;8.90;;;5.90;;
69856;SDS011;57147;53.582;10.112;2023-03-12T05:45:15;9.80;;;6.07;;
69856;SDS011;57147;53.582;10.112;2023-03-12T05:50:16;10.88;;;7.10;;
69856;SDS011;57147;53.582;10.112;2023-03-12T05:55:17;11.63;;;7.20;;
69856;SDS011;57147;53.582;10.112;2023-03-12T06:00:21;8.65;;;6.82;;
69856;SDS011;57147;53.582;10.112;2023-03-12T06:05:22;10.93;;;6.15;;
69856;SDS011;57147;53.582;10.112;2023-03-12T06:10:23;9.73;;;6.53;;
69856;SDS011;57147;53.582;10.112;2023-03-12T06:15:26;13.27;;;7.57;;
69856;SDS011;57147;53.582;10.112;2023-03-12T06:20:27;10.70;;;7.05;;
69856;SDS011;57147;53.582;10.112;2023-03-12T06:25:27;10.82;;;7.10;;
69856;SDS011;57147;53.582;10.112;2023-03-12T06:30:30;8.73;;;6.50;;
69856;SDS011;57147;53.582;10.112;2023-03-12T06:35:31;9.38;;;7.13;;
69856;SDS011;57147;53.582;10.112;2023-03-12T06:40:32;11.90;;;6.95;;
69856;SDS011;57147;53.582;10.112;2023-03-12T06:45:35;10.63;;;6.90;;
69856;SDS011;57147;53.582;10.112;2023-03-12T06:50:35;8.23;;;6.13;;
69856;SDS011;57147;53.582;10.112;2023-03-12T06:55:36;11.98;;;7.88;;
69856;SDS011;57147;53.582;10.112;2023-03-12T07:00:40;8.98;;;5.75;;
69856;SDS011;57147;53.582;10.112;2023-03-12T07:05:42;7.97;;;6.78;;
69856;SDS011;57147;53.582;10.112;2023-03-12T07:10:43;9.20;;;8.00;;
69856;SDS011;57147;53.582;10.112;2023-03-12T07:15:47;9.48;;;5.80;;
69856;SDS011;57147;53.582;10.112;2023-03-12T07:20:48;6.63;;;5.35;;
69856;SDS011;57147;53.582;10.112;2023-03-12T07:25:49;7.35;;;5.80;;
69856;SDS011;57147;53.582;10.112;2023-03-12T07:30:58;7.82;;;5.07;;
69856;SDS011;57147;53.582;10.112;2023-03-12T07:35:59;12.52;;;8.57;;
69856;SDS011;57147;53.582;10.112;2023-03-12T07:41:00;7.18;;;5.25;;
69856;SDS011;57147;53.582;10.112;2023-03-12T07:46:03;7.53;;;5.03;;
69856;SDS011;57147;53.582;10.112;2023-03-12T07:51:04;11.27;;;8.23;;
69856;SDS011;57147;53.582;10.112;2023-03-12T07:56:05;7.85;;;6.00;;
69856;SDS011;57147;53.582;10.112;2023-03-12T08:01:09;8.85;;;5.38;;
69856;SDS011;57147;53.582;10.112;2023-03-12T08:06:10;6.68;;;4.20;;
69856;SDS011;57147;53.582;10.112;2023-03-12T08:11:11;9.93;;;5.00;;
69856;SDS011;57147;53.582;10.112;2023-03-12T08:16:14;9.65;;;5.05;;
69856;SDS011;57147;53.582;10.112;2023-03-12T08:21:14;11.13;;;4.57;;
69856;SDS011;57147;53.582;10.112;2023-03-12T08:26:15;10.10;;;5.30;;
69856;SDS011;57147;53.582;10.112;2023-03-12T08:31:18;7.28;;;4.43;;
69856;SDS011;57147;53.582;10.112;2023-03-12T08:36:19;7.22;;;5.20;;
69856;SDS011;57147;53.582;10.112;2023-03-12T08:41:20;6.88;;;4.60;;
69856;SDS011;57147;53.582;10.112;2023-03-12T08:46:23;6.63;;;3.90;;
69856;SDS011;57147;53.582;10.112;2023-03-12T08:51:24;6.43;;;3.72;;
69856;SDS011;57147;53.582;10.112;2023-03-12T08:56:24;6.72;;;4.70;;
69856;SDS011;57147;53.582;10.112;2023-03-12T09:01:27;5.05;;;3.08;;
69856;SDS011;57147;53.582;10.112;2023-03-12T09:06:28;8.93;;;4.15;;
69856;SDS011;57147;53.582;10.112;2023-03-12T09:11:29;6.90;;;3.40;;
69856;SDS011;57147;53.582;10.112;2023-03-12T09:16:33;8.45;;;3.55;;
69856;SDS011;57147;53.582;10.112;2023-03-12T09:21:34;5.68;;;3.28;;
69856;SDS011;57147;53.582;10.112;2023-03-12T09:26:35;6.60;;;3.80;;
69856;SDS011;57147;53.582;10.112;2023-03-12T09:31:38;8.35;;;3.53;;
69856;SDS011;57147;53.582;10.112;2023-03-12T09:36:44;8.55;;;3.88;;
69856;SDS011;57147;53.582;10.112;2023-03-12T09:41:47;5.72;;;3.22;;
69856;SDS011;57147;53.582;10.112;2023-03-12T09:46:52;9.10;;;3.05;;
69856;SDS011;57147;53.582;10.112;2023-03-12T09:51:56;7.30;;;3.15;;
69856;SDS011;57147;53.582;10.112;2023-03-12T09:56:59;6.32;;;3.03;;
69856;SDS011;57147;53.582;10.112;2023-03-12T10:02:10;7.22;;;3.50;;
69856;SDS011;57147;53.582;10.112;2023-03-12T10:07:27;5.82;;;3.50;;
69856;SDS011;57147;53.582;10.112;2023-03-12T10:12:37;4.82;;;3.17;;
69856;SDS011;57147;53.582;10.112;2023-03-12T10:17:54;6.25;;;4.07;;
69856;SDS011;57147;53.582;10.112;2023-03-12T10:23:03;8.70;;;3.30;;
69856;SDS011;57147;53.582;10.112;2023-03-12T10:28:11;6.30;;;3.63;;
69856;SDS011;57147;53.582;10.112;2023-03-12T10:33:17;6.65;;;3.92;;
69856;SDS011;57147;53.582;10.112;2023-03-12T10:38:21;10.80;;;4.20;;
69856;SDS011;57147;53.582;10.112;2023-03-12T10:43:27;9.48;;;2.80;;
69856;SDS011;57147;53.582;10.112;2023-03-12T10:48:30;5.60;;;3.15;;
69856;SDS011;57147;53.582;10.112;2023-03-12T10:53:31;5.38;;;2.55;;
69856;SDS011;57147;53.582;10.112;2023-03-12T10:58:34;4.63;;;3.05;;
69856;SDS011;57147;53.582;10.112;2023-03-12T11:03:38;7.00;;;3.67;;
69856;SDS011;57147;53.582;10.112;2023-03-12T11:08:39;6.47;;;2.92;;
69856;SDS011;57147;53.582;10.112;2023-03-12T11:13:40;6.72;;;2.55;;
69856;SDS011;57147;53.582;10.112;2023-03-12T11:18:44;5.80;;;3.00;;
69856;SDS011;57147;53.582;10.112;2023-03-12T11:24:05;5.75;;;3.25;;
69856;SDS011;57147;53.582;10.112;2023-03-12T11:29:11;7.63;;;4.13;;
69856;SDS011;57147;53.582;10.112;2023-03-12T11:34:20;8.57;;;5.30;;
69856;SDS011;57147;53.582;10.112;2023-03-12T11:39:25;6.32;;;3.95;;
69856;SDS011;57147;53.582;10.112;2023-03-12T11:44:33;5.43;;;2.78;;
69856;SDS011;57147;53.582;10.112;2023-03-12T11:49:48;3.92;;;2.42;;
69856;SDS011;57147;53.582;10.112;2023-03-12T11:55:11;5.85;;;2.55;;
69856;SDS011;57147;53.582;10.112;2023-03-12T12:00:18;3.42;;;2.38;;
69856;SDS011;57147;53.582;10.112;2023-03-12T12:05:30;5.85;;;2.25;;
69856;SDS011;57147;53.582;10.112;2023-03-12T12:10:41;5.80;;;2.88;;
69856;SDS011;57147;53.582;10.112;2023-03-12T12:15:51;6.22;;;2.65;;
69856;SDS011;57147;53.582;10.112;2023-03-12T12:21:03;5.55;;;2.67;;
69856;SDS011;57147;53.582;10.112;2023-03-12T12:26:13;6.07;;;4.00;;
69856;SDS011;57147;53.582;10.112;2023-03-12T12:31:28;4.18;;;2.28;;
69856;SDS011;57147;53.582;10.112;2023-03-12T12:36:34;4.13;;;1.70;;
69856;SDS011;57147;53.582;10.112;2023-03-12T12:41:36;5.43;;;2.38;;
69856;SDS011;57147;53.582;10.112;2023-03-12T12:46:39;7.05;;;2.53;;
69856;SDS011;57147;53.582;10.112;2023-03-12T12:51:47;3.95;;;2.10;;
69856;SDS011;57147;53.582;10.112;2023-03-12T12:56:51;3.63;;;1.75;;
69856;SDS011;57147;53.582;10.112;2023-03-12T13:01:55;4.68;;;2.05;;
69856;SDS011;57147;53.582;10.112;2023-03-12T13:07:01;3.05;;;1.52;;
69856;SDS011;57147;53.582;10.112;2023-03-12T13:12:24;4.15;;;1.65;;
69856;SDS011;57147;53.582;10.112;2023-03-12T13:17:30;5.55;;;1.85;;
69856;SDS011;57147;53.582;10.112;2023-03-12T13:28:24;2.75;;;1.55;;
69856;SDS011;57147;53.582;10.112;2023-03-12T13:33:41;3.58;;;1.67;;
69856;SDS011;57147;53.582;10.112;2023-03-12T13:43:54;6.00;;;4.60;;
69856;SDS011;57147;53.582;10.112;2023-03-12T13:48:57;3.25;;;2.38;;
69856;SDS011;57147;53.582;10.112;2023-03-12T13:54:05;3.05;;;1.25;;
69856;SDS011;57147;53.582;10.112;2023-03-12T13:59:05;4.82;;;1.85;;
69856;SDS011;57147;53.582;10.112;2023-03-12T14:04:15;4.88;;;1.73;;
69856;SDS011;57147;53.582;10.112;2023-03-12T14:09:24;7.03;;;3.33;;
69856;SDS011;57147;53.582;10.112;2023-03-12T14:20:09;3.83;;;1.92;;
69856;SDS011;57147;53.582;10.112;2023-03-12T14:25:16;5.30;;;2.45;;
69856;SDS011;57147;53.582;10.112;2023-03-12T14:30:27;4.43;;;2.38;;
69856;SDS011;57147;53.582;10.112;2023-03-12T14:35:37;5.25;;;2.03;;
69856;SDS011;57147;53.582;10.112;2023-03-12T14:40:45;6.88;;;2.35;;
69856;SDS011;57147;53.582;10.112;2023-03-12T14:45:55;3.83;;;2.40;;
69856;SDS011;57147;53.582;10.112;2023-03-12T14:51:36;5.88;;;4.70;;
69856;SDS011;57147;53.582;10.112;2023-03-12T14:56:37;5.40;;;4.88;;
69856;SDS011;57147;53.582;10.112;2023-03-12T15:01:43;7.88;;;5.80;;
69856;SDS011;57147;53.582;10.112;2023-03-12T15:06:48;7.43;;;6.78;;
69856;SDS011;57147;53.582;10.112;2023-03-12T15:16:53;7.20;;;5.40;;
69856;SDS011;57147;53.582;10.112;2023-03-12T15:21:57;6.13;;;5.63;;
69856;SDS011;57147;53.582;10.112;2023-03-12T15:26:59;5.47;;;4.95;;
69856;SDS011;57147;53.582;10.112;2023-03-12T15:32:20;5.28;;;4.88;;
69856;SDS011;57147;53.582;10.112;2023-03-12T15:37:25;6.07;;;5.28;;
69856;SDS011;57147;53.582;10.112;2023-03-12T15:42:27;5.43;;;5.03;;
69856;SDS011;57147;53.582;10.112;2023-03-12T15:47:28;5.82;;;5.43;;
69856;SDS011;57147;53.582;10.112;2023-03-12T15:52:34;6.38;;;5.78;;
69856;SDS011;57147;53.582;10.112;2023-03-12T15:57:43;5.32;;;4.82;;
69856;SDS011;57147;53.582;10.112;2023-03-12T16:02:46;6.82;;;6.18;;
69856;SDS011;57147;53.582;10.112;2023-03-12T16:07:51;6.63;;;6.05;;
69856;SDS011;57147;53.582;10.112;2023-03-12T16:12:55;7.10;;;6.40;;
69856;SDS011;57147;53.582;10.112;2023-03-12T16:17:59;4.90;;;3.55;;
69856;SDS011;57147;53.582;10.112;2023-03-12T16:23:03;7.28;;;6.68;;
69856;SDS011;57147;53.582;10.112;2023-03-12T16:28:04;5.82;;;5.40;;
69856;SDS011;57147;53.582;10.112;2023-03-12T16:33:05;6.70;;;6.05;;
69856;SDS011;57147;53.582;10.112;2023-03-12T16:38:09;6.72;;;6.03;;
69856;SDS011;57147;53.582;10.112;2023-03-12T16:43:12;9.45;;;8.32;;
69856;SDS011;57147;53.582;10.112;2023-03-12T16:48:16;6.05;;;4.90;;
69856;SDS011;57147;53.582;10.112;2023-03-12T16:53:20;7.15;;;6.55;;
69856;SDS011;57147;53.582;10.112;2023-03-12T16:58:22;7.18;;;6.57;;
69856;SDS011;57147;53.582;10.112;2023-03-12T17:03:26;7.13;;;6.25;;
69856;SDS011;57147;53.582;10.112;2023-03-12T17:13:33;5.13;;;4.57;;
69856;SDS011;57147;53.582;10.112;2023-03-12T17:18:35;10.93;;;10.13;;
69856;SDS011;57147;53.582;10.112;2023-03-12T17:23:38;19.77;;;18.45;;
69856;SDS011;57147;53.582;10.112;2023-03-12T17:28:39;9.38;;;8.68;;
69856;SDS011;57147;53.582;10.112;2023-03-12T17:33:39;13.48;;;12.60;;
69856;SDS011;57147;53.582;10.112;2023-03-12T17:38:43;8.45;;;7.72;;
69856;SDS011;57147;53.582;10.112;2023-03-12T17:43:43;11.30;;;10.45;;
69856;SDS011;57147;53.582;10.112;2023-03-12T17:48:44;9.70;;;8.80;;
69856;SDS011;57147;53.582;10.112;2023-03-12T17:53:47;11.45;;;10.65;;
69856;SDS011;57147;53.582;10.112;2023-03-12T17:58:48;14.45;;;13.45;;
69856;SDS011;57147;53.582;10.112;2023-03-12T18:03:48;16.08;;;14.98;;
69856;SDS011;57147;53.582;10.112;2023-03-12T18:08:52;24.08;;;22.45;;
69856;SDS011;57147;53.582;10.112;2023-03-12T18:13:52;19.63;;;18.27;;
69856;SDS011;57147;53.582;10.112;2023-03-12T18:18:53;13.05;;;12.02;;
69856;SDS011;57147;53.582;10.112;2023-03-12T18:23:56;15.15;;;13.85;;
69856;SDS011;57147;53.582;10.112;2023-03-12T18:28:57;16.05;;;14.75;;
69856;SDS011;57147;53.582;10.112;2023-03-12T18:33:57;22.45;;;20.75;;
69856;SDS011;57147;53.582;10.112;2023-03-12T18:39:01;17.52;;;16.02;;
69856;SDS011;57147;53.582;10.112;2023-03-12T18:44:01;17.45;;;15.68;;
69856;SDS011;57147;53.582;10.112;2023-03-12T18:49:02;17.75;;;12.57;;
69856;SDS011;57147;53.582;10.112;2023-03-12T18:54:06;29.77;;;27.40;;
69856;SDS011;57147;53.582;10.112;2023-03-12T18:59:07;17.00;;;12.50;;
69856;SDS011;57147;53.582;10.112;2023-03-12T19:04:07;20.83;;;18.77;;
69856;SDS011;57147;53.582;10.112;2023-03-12T19:09:11;22.17;;;17.00;;
69856;SDS011;57147;53.582;10.112;2023-03-12T19:14:12;24.33;;;18.38;;
69856;SDS011;57147;53.582;10.112;2023-03-12T19:19:12;29.48;;;21.23;;
69856;SDS011;57147;53.582;10.112;2023-03-12T19:24:16;32.13;;;25.02;;
69856;SDS011;57147;53.582;10.112;2023-03-12T19:29:16;38.03;;;21.52;;
69856;SDS011;57147;53.582;10.112;2023-03-12T19:34:17;34.17;;;21.13;;
69856;SDS011;57147;53.582;10.112;2023-03-12T19:39:20;48.63;;;26.13;;
69856;SDS011;57147;53.582;10.112;2023-03-12T19:44:21;46.75;;;31.30;;
69856;SDS011;57147;53.582;10.112;2023-03-12T19:49:21;51.55;;;30.55;;
69856;SDS011;57147;53.582;10.112;2023-03-12T19:54:25;55.00;;;27.98;;
69856;SDS011;57147;53.582;10.112;2023-03-12T19:59:25;37.75;;;22.17;;
69856;SDS011;57147;53.582;10.112;2023-03-12T20:04:26;50.40;;;22.90;;
69856;SDS011;57147;53.582;10.112;2023-03-12T20:09:29;50.75;;;31.90;;
69856;SDS011;57147;53.582;10.112;2023-03-12T20:14:31;45.83;;;24.98;;
69856;SDS011;57147;53.582;10.112;2023-03-12T20:19:32;47.67;;;27.73;;
69856;SDS011;57147;53.582;10.112;2023-03-12T20:24:35;52.63;;;30.65;;
69856;SDS011;57147;53.582;10.112;2023-03-12T20:29:36;52.35;;;24.83;;
69856;SDS011;57147;53.582;10.112;2023-03-12T20:34:36;48.05;;;32.10;;
69856;SDS011;57147;53.582;10.112;2023-03-12T20:39:40;47.83;;;22.35;;
69856;SDS011;57147;53.582;10.112;2023-03-12T20:44:45;46.72;;;27.20;;
69856;SDS011;57147;53.582;10.112;2023-03-12T20:49:46;47.00;;;32.13;;
69856;SDS011;57147;53.582;10.112;2023-03-12T20:54:49;42.30;;;21.50;;
69856;SDS011;57147;53.582;10.112;2023-03-12T20:59:50;41.17;;;19.20;;
69856;SDS011;57147;53.582;10.112;2023-03-12T21:04:51;42.05;;;22.55;;
69856;SDS011;57147;53.582;10.112;2023-03-12T21:09:54;40.85;;;19.17;;
69856;SDS011;57147;53.582;10.112;2023-03-12T21:20:27;38.97;;;21.50;;
69856;SDS011;57147;53.582;10.112;2023-03-12T21:25:38;33.97;;;14.75;;
69856;SDS011;57147;53.582;10.112;2023-03-12T21:30:40;38.40;;;17.80;;
69856;SDS011;57147;53.582;10.112;2023-03-12T21:35:42;43.55;;;17.45;;
69856;SDS011;57147;53.582;10.112;2023-03-12T21:40:45;34.80;;;22.35;;
69856;SDS011;57147;53.582;10.112;2023-03-12T21:45:46;35.15;;;18.50;;
69856;SDS011;57147;53.582;10.112;2023-03-12T21:50:47;34.85;;;22.15;;
69856;SDS011;57147;53.582;10.112;2023-03-12T21:55:55;34.08;;;11.65;;
69856;SDS011;57147;53.582;10.112;2023-03-12T22:01:03;27.45;;;12.23;;
69856;SDS011;57147;53.582;10.112;2023-03-12T22:06:06;33.42;;;11.35;;
69856;SDS011;57147;53.582;10.112;2023-03-12T22:11:10;30.58;;;10.38;;
69856;SDS011;57147;53.582;10.112;2023-03-12T22:16:11;28.38;;;10.23;;
69856;SDS011;57147;53.582;10.112;2023-03-12T22:21:12;31.95;;;11.70;;
69856;SDS011;57147;53.582;10.112;2023-03-12T22:26:17;27.80;;;12.23;;
69856;SDS011;57147;53.582;10.112;2023-03-12T22:31:19;26.75;;;13.15;;
69856;SDS011;57147;53.582;10.112;2023-03-12T22:36:21;31.13;;;10.90;;
69856;SDS011;57147;53.582;10.112;2023-03-12T22:41:25;26.20;;;10.93;;
69856;SDS011;57147;53.582;10.112;2023-03-12T22:46:27;25.75;;;9.90;;
69856;SDS011;57147;53.582;10.112;2023-03-12T22:51:29;26.77;;;10.23;;
69856;SDS011;57147;53.582;10.112;2023-03-12T22:56:33;25.52;;;13.10;;
69856;SDS011;57147;53.582;10.112;2023-03-12T23:01:34;24.55;;;12.13;;
69856;SDS011;57147;53.582;10.112;2023-03-12T23:06:34;27.75;;;11.32;;
69856;SDS011;57147;53.582;10.112;2023-03-12T23:11:37;22.73;;;9.85;;
69856;SDS011;57147;53.582;10.112;2023-03-12T23:16:38;25.73;;;10.73;;
69856;SDS011;57147;53.582;10.112;2023-03-12T23:21:39;20.05;;;8.55;;
69856;SDS011;57147;53.582;10.112;2023-03-12T23:26:42;23.45;;;8.88;;
69856;SDS011;57147;53.582;10.112;2023-03-12T23:31:42;30.00;;;11.35;;
69856;SDS011;57147;53.582;10.112;2023-03-12T23:36:43;26.15;;;8.60;;
69856;SDS011;57147;53.582;10.112;2023-03-12T23:41:46;21.15;;;7.65;;
69856;SDS011;57147;53.582;10.112;2023-03-12T23:46:47;23.80;;;7.20;;
69856;SDS011;57147;53.582;10.112;2023-03-12T23:51:48;23.92;;;6.88;;
69856;SDS011;57147;53.582;10.112;2023-03-12T23:56:51;20.08;;;7.20;;
